Gaborone, Botswana
Current Conditions -  °F | °C
As of 6:00 AM on Sunday 26 Oct 2014 (Local Time) from FBSK Reporting Station
Scattered Clouds Scattered Clouds  
Wind Chill: 64°   Ceiling: Unl
Heat Index: 64°   Visibility: 6mi
Dew Point: 55°   Wind: 9mph
Humidity: 73%   Direction: 70°ENE
Pressure: 30.15"   Gusts: NA
Location:  24.65°S, 25.91°E
Report Text: FBSK 260400Z 07008KT 9999 SCT025 18/13 Q1021 NOSIG
Loading
Personal Weather Stations






























Interactive Weather Map
Tropical Storm Tracking
New forecast layout! Learn more

10-Day Weather Forecast

Advertisements
Track Severe Weather on mobile